Time;durP1;ratioP1;P1;durP2;ratioP2;P2;SDS_P1;SDS_P2;PMS_P1;PMS_P2;Temp;Humidity;BMP_temperature;BMP_pressure;BME280_temperature;BME280_humidity;BME280_pressure;Samples;Min_cycle;Max_cycle;Signal;HPM_P1;HPM_P2
2021/05/26 00:01:59;;;;;;;11.65;1.98;;;39.20;10.90;;;;;;5092195;28;20190;-62
2021/05/26 00:04:26;;;;;;;8.65;1.50;;;39.20;10.20;;;;;;5068754;28;20076;-59
2021/05/26 00:06:52;;;;;;;13.57;1.92;;;39.10;10.10;;;;;;5087680;28;20122;-61
2021/05/26 00:09:22;;;;;;;14.52;2.13;;;39.10;10.40;;;;;;5071538;28;20081;-61
2021/05/26 00:11:48;;;;;;;7.18;1.52;;;38.90;10.30;;;;;;5092601;28;20522;-61
2021/05/26 00:14:17;;;;;;;7.43;1.55;;;38.70;10.10;;;;;;5093401;28;20635;-60
2021/05/26 00:16:43;;;;;;;8.85;1.58;;;38.80;10.70;;;;;;5074712;28;20069;-61
2021/05/26 00:19:10;;;;;;;10.27;1.65;;;38.80;10.40;;;;;;5091403;28;20083;-60
2021/05/26 00:21:37;;;;;;;7.28;1.70;;;38.70;10.20;;;;;;5088684;28;20078;-60
2021/05/26 00:24:03;;;;;;;29.02;2.55;;;38.70;10.50;;;;;;5086702;28;20085;-59
2021/05/26 00:26:30;;;;;;;15.00;1.90;;;38.70;10.50;;;;;;5086265;28;20077;-61
2021/05/26 00:28:57;;;;;;;11.65;1.70;;;38.80;10.40;;;;;;5085689;28;20122;-60
2021/05/26 00:31:24;;;;;;;8.00;1.67;;;38.70;10.70;;;;;;5088955;28;20069;-60
2021/05/26 00:33:51;;;;;;;14.65;1.83;;;38.70;10.50;;;;;;5088386;28;20136;-61
2021/05/26 00:36:18;;;;;;;19.15;2.03;;;38.70;10.90;;;;;;5091564;28;20068;-60
2021/05/26 00:38:45;;;;;;;9.43;1.60;;;38.60;10.50;;;;;;5090635;28;20076;-60
2021/05/26 00:41:12;;;;;;;10.57;1.60;;;38.50;10.70;;;;;;5089270;28;20503;-60
2021/05/26 00:43:39;;;;;;;16.25;1.85;;;38.50;10.80;;;;;;5085538;28;20101;-57
2021/05/26 00:46:06;;;;;;;15.43;1.70;;;38.30;10.60;;;;;;5089453;28;20069;-60
2021/05/26 00:48:33;;;;;;;11.57;1.63;;;38.10;10.80;;;;;;5085875;28;20076;-60
2021/05/26 00:50:59;;;;;;;9.65;2.08;;;38.10;10.80;;;;;;5088010;28;20077;-61
2021/05/26 00:53:28;;;;;;;24.58;2.28;;;38.00;10.90;;;;;;5089390;28;20092;-62
2021/05/26 00:55:55;;;;;;;12.95;1.92;;;37.90;10.50;;;;;;5086987;28;20073;-59
2021/05/26 00:58:24;;;;;;;16.15;2.10;;;37.70;10.50;;;;;;5088245;28;20077;-60
2021/05/26 01:00:50;;;;;;;15.73;1.90;;;37.60;11.40;;;;;;5072675;28;20073;-60
2021/05/26 01:03:18;;;;;;;16.67;2.10;;;37.50;10.80;;;;;;5071710;28;20153;-62
2021/05/26 01:05:44;;;;;;;11.55;1.98;;;37.40;11.00;;;;;;5087713;28;20068;-61
2021/05/26 01:08:11;;;;;;;11.98;1.63;;;37.30;10.80;;;;;;5088627;28;20108;-61
2021/05/26 01:10:38;;;;;;;12.85;2.58;;;37.20;11.50;;;;;;5088240;28;20073;-62
2021/05/26 01:13:04;;;;;;;28.75;4.35;;;37.20;11.10;;;;;;5090014;28;20513;-63
2021/05/26 01:15:32;;;;;;;22.27;4.63;;;37.10;10.80;;;;;;5089995;28;20110;-62
2021/05/26 01:18:21;;;;;;;27.95;5.07;;;37.00;10.90;;;;;;5067601;28;20081;-60
2021/05/26 01:20:48;;;;;;;33.63;6.13;;;36.90;10.90;;;;;;5087135;28;20069;-60
2021/05/26 01:23:17;;;;;;;41.92;8.77;;;36.70;11.30;;;;;;5088319;28;20449;-61
2021/05/26 01:25:47;;;;;;;41.70;6.10;;;36.70;10.90;;;;;;5087276;28;20565;-62
2021/05/26 01:28:13;;;;;;;22.38;4.68;;;36.50;10.70;;;;;;5094402;28;20068;-61
2021/05/26 01:30:40;;;;;;;28.83;4.55;;;36.50;10.80;;;;;;5089241;28;20077;-60
2021/05/26 01:33:07;;;;;;;21.17;3.83;;;36.40;10.90;;;;;;5085118;28;20121;-61
2021/05/26 01:35:34;;;;;;;21.10;3.40;;;36.20;10.90;;;;;;5086777;28;20160;-61
2021/05/26 01:38:00;;;;;;;21.80;3.50;;;36.10;11.10;;;;;;5087001;28;20080;-60
2021/05/26 01:40:27;;;;;;;21.27;3.28;;;35.90;11.00;;;;;;5089334;28;20073;-62
2021/05/26 01:42:53;;;;;;;19.75;3.92;;;35.80;11.00;;;;;;5087024;28;20566;-61
2021/05/26 01:45:20;;;;;;;21.88;4.30;;;35.80;11.10;;;;;;5087737;28;20449;-61
2021/05/26 01:47:50;;;;;;;29.38;5.68;;;35.70;11.20;;;;;;5087943;28;20538;-62
2021/05/26 01:50:21;;;;;;;28.33;6.30;;;35.50;11.50;;;;;;5087185;28;20152;-61
2021/05/26 01:52:53;;;;;;;27.10;8.20;;;35.40;11.50;;;;;;5069959;28;20120;-61
2021/05/26 01:55:20;;;;;;;30.27;7.68;;;35.20;11.90;;;;;;5089201;28;20118;-61
2021/05/26 01:57:47;;;;;;;34.35;8.57;;;35.00;12.10;;;;;;5086558;28;20081;-64
2021/05/26 02:00:16;;;;;;;31.35;6.43;;;34.90;12.50;;;;;;5090068;28;20134;-60
2021/05/26 02:02:43;;;;;;;39.60;5.18;;;34.80;12.90;;;;;;5088269;28;20087;-62
2021/05/26 02:05:10;;;;;;;40.38;5.43;;;34.70;13.00;;;;;;5083741;28;20226;-62
2021/05/26 02:07:37;;;;;;;20.60;4.00;;;34.70;13.30;;;;;;5087060;28;20506;-61
2021/05/26 02:10:06;;;;;;;51.63;3.50;;;34.50;13.40;;;;;;5083317;28;20215;-62
2021/05/26 02:12:33;;;;;;;16.13;3.20;;;34.40;13.40;;;;;;5086862;28;20093;-60
2021/05/26 02:15:01;;;;;;;34.95;3.38;;;34.30;13.30;;;;;;5087067;28;20079;-60
2021/05/26 02:17:28;;;;;;;28.95;3.05;;;34.20;12.90;;;;;;5086061;28;20076;-58
2021/05/26 02:19:55;;;;;;;33.28;3.35;;;34.10;13.00;;;;;;5086676;28;20104;-61
2021/05/26 02:22:23;;;;;;;28.02;2.90;;;34.00;12.80;;;;;;5087990;28;20084;-60
2021/05/26 02:24:50;;;;;;;31.48;3.33;;;33.90;12.90;;;;;;5087286;28;20156;-60
2021/05/26 02:27:17;;;;;;;34.05;3.20;;;33.80;13.10;;;;;;5088466;28;20077;-62
2021/05/26 02:29:44;;;;;;;26.42;3.17;;;33.70;13.20;;;;;;5088974;28;20075;-62
2021/05/26 02:32:11;;;;;;;18.42;3.30;;;33.70;13.20;;;;;;5087032;28;20069;-63
2021/05/26 02:34:38;;;;;;;18.90;2.80;;;33.60;13.30;;;;;;5086195;28;20123;-62
2021/05/26 02:37:05;;;;;;;18.27;2.67;;;33.50;13.30;;;;;;5086409;28;20068;-61
2021/05/26 02:39:32;;;;;;;16.70;2.03;;;33.50;13.40;;;;;;5088952;28;20134;-63
2021/05/26 02:41:59;;;;;;;18.10;2.20;;;33.40;13.30;;;;;;5080796;28;20167;-63
2021/05/26 02:44:26;;;;;;;25.52;3.35;;;33.30;13.50;;;;;;5084136;28;20080;-61
2021/05/26 02:46:52;;;;;;;15.55;2.38;;;33.20;13.50;;;;;;5084810;28;20150;-61
2021/05/26 02:49:19;;;;;;;16.55;2.67;;;33.10;13.60;;;;;;5079962;28;20175;-60
2021/05/26 02:51:46;;;;;;;25.60;2.35;;;33.00;13.60;;;;;;5079668;28;20072;-60
2021/05/26 02:54:12;;;;;;;25.10;2.83;;;33.00;13.60;;;;;;5083931;28;20093;-60
2021/05/26 02:56:39;;;;;;;20.00;4.03;;;32.90;13.70;;;;;;5087061;28;20079;-60
2021/05/26 02:59:07;;;;;;;21.25;3.65;;;32.90;13.70;;;;;;5072015;28;20164;-60
2021/05/26 03:01:34;;;;;;;19.50;3.55;;;32.80;13.70;;;;;;5087911;28;20150;-62
2021/05/26 03:04:01;;;;;;;28.88;4.30;;;32.70;13.80;;;;;;5089396;28;20081;-61
2021/05/26 03:06:28;;;;;;;27.10;3.50;;;32.70;14.10;;;;;;5087219;28;20091;-63
2021/05/26 03:08:54;;;;;;;24.27;4.28;;;32.60;14.10;;;;;;5088024;28;20147;-61
2021/05/26 03:11:21;;;;;;;13.90;2.67;;;32.60;13.80;;;;;;5085385;28;20107;-61
2021/05/26 03:13:48;;;;;;;28.73;3.53;;;32.50;13.80;;;;;;5091484;28;20100;-63
2021/05/26 03:16:14;;;;;;;19.42;3.45;;;32.50;13.70;;;;;;5091464;28;20183;-62
2021/05/26 03:18:41;;;;;;;23.70;3.10;;;32.40;13.80;;;;;;5088806;28;20095;-59
2021/05/26 03:21:08;;;;;;;23.08;2.95;;;32.50;14.30;;;;;;5084534;28;20147;-59
2021/05/26 03:23:35;;;;;;;16.75;3.33;;;32.40;14.20;;;;;;5092219;28;20192;-58
2021/05/26 03:26:02;;;;;;;30.77;3.80;;;32.30;14.20;;;;;;5096822;28;20461;-60
2021/05/26 03:28:28;;;;;;;23.33;3.20;;;32.30;14.50;;;;;;5092172;28;20083;-58
2021/05/26 03:30:55;;;;;;;23.80;4.00;;;32.10;14.60;;;;;;5086704;28;20069;-58
2021/05/26 03:33:21;;;;;;;21.52;3.50;;;32.10;14.60;;;;;;5084121;28;20120;-58
2021/05/26 03:35:48;;;;;;;25.83;3.67;;;32.00;14.40;;;;;;5085583;28;20077;-58
2021/05/26 03:38:15;;;;;;;19.17;4.00;;;32.00;14.60;;;;;;5101017;28;20076;-59
2021/05/26 03:40:42;;;;;;;32.15;4.90;;;32.00;14.70;;;;;;5089277;28;20529;-59
2021/05/26 03:43:08;;;;;;;15.32;4.20;;;31.90;14.60;;;;;;5085178;28;20104;-58
2021/05/26 03:45:35;;;;;;;19.25;3.95;;;31.90;14.50;;;;;;5094242;28;20075;-58
2021/05/26 03:48:02;;;;;;;20.65;3.75;;;31.90;14.60;;;;;;5085980;28;20081;-59
2021/05/26 03:50:28;;;;;;;18.15;3.60;;;31.90;14.70;;;;;;5068895;28;20208;-54
2021/05/26 03:52:56;;;;;;;29.90;4.25;;;31.80;15.00;;;;;;5082512;28;20088;-58
2021/05/26 03:55:24;;;;;;;26.65;4.68;;;31.70;14.80;;;;;;5085537;28;20069;-59
2021/05/26 03:57:51;;;;;;;34.88;4.28;;;31.70;15.20;;;;;;5089041;28;20094;-60
2021/05/26 04:00:21;;;;;;;23.13;3.78;;;31.70;15.00;;;;;;5088869;28;20065;-59
2021/05/26 04:02:49;;;;;;;24.45;3.63;;;31.70;15.00;;;;;;5090621;28;20080;-58
2021/05/26 04:05:16;;;;;;;23.70;3.88;;;31.60;14.60;;;;;;5067761;28;20150;-58
2021/05/26 04:07:43;;;;;;;16.58;3.45;;;31.50;14.90;;;;;;5089540;28;20077;-60
2021/05/26 04:10:10;;;;;;;38.83;3.55;;;31.50;14.60;;;;;;5088287;28;20073;-61
2021/05/26 04:12:37;;;;;;;29.45;3.50;;;31.50;14.60;;;;;;5089131;28;20576;-58
2021/05/26 04:15:06;;;;;;;19.08;3.17;;;31.40;14.40;;;;;;5092057;28;20433;-59
2021/05/26 04:17:32;;;;;;;17.35;3.08;;;31.40;15.30;;;;;;5088597;28;20080;-56
2021/05/26 04:20:03;;;;;;;18.52;3.72;;;31.30;14.90;;;;;;5088048;28;20997;-59
2021/05/26 04:22:34;;;;;;;20.40;4.22;;;31.30;14.50;;;;;;5087249;28;20079;-59
2021/05/26 04:25:01;;;;;;;11.98;2.78;;;31.30;14.60;;;;;;5086121;28;20084;-60
2021/05/26 04:27:28;;;;;;;15.32;2.50;;;31.20;13.90;;;;;;5083704;28;20075;-60
2021/05/26 04:29:54;;;;;;;12.45;2.70;;;31.20;13.90;;;;;;5067565;28;20080;-60
2021/05/26 04:32:21;;;;;;;10.82;2.53;;;31.20;13.90;;;;;;5090291;28;20073;-57
2021/05/26 04:34:48;;;;;;;13.23;2.28;;;31.10;14.00;;;;;;5091366;28;20529;-60
2021/05/26 04:37:16;;;;;;;11.38;2.78;;;31.10;13.80;;;;;;5093448;28;20671;-60
2021/05/26 04:39:43;;;;;;;14.82;3.35;;;31.10;13.80;;;;;;5097547;28;20499;-58
2021/05/26 04:42:10;;;;;;;21.63;3.65;;;31.00;13.90;;;;;;5089488;28;20534;-57
2021/05/26 04:44:37;;;;;;;13.82;3.47;;;31.00;14.20;;;;;;5082959;28;20073;-57
2021/05/26 04:47:04;;;;;;;11.18;4.18;;;30.90;14.40;;;;;;5086788;28;20117;-59
2021/05/26 04:49:31;;;;;;;11.50;4.45;;;30.90;13.90;;;;;;5073560;28;20068;-58
2021/05/26 04:51:57;;;;;;;17.45;4.80;;;30.90;14.20;;;;;;5086984;28;20077;-55
2021/05/26 04:54:24;;;;;;;21.13;4.70;;;30.90;14.10;;;;;;5081126;28;20193;-58
2021/05/26 04:56:50;;;;;;;19.23;5.25;;;30.80;13.90;;;;;;5084710;28;20561;-56
2021/05/26 04:59:17;;;;;;;18.10;5.13;;;30.80;14.00;;;;;;5083228;28;20466;-57
2021/05/26 05:01:43;;;;;;;24.35;4.68;;;30.80;14.20;;;;;;5083755;28;20072;-55
2021/05/26 05:04:10;;;;;;;23.80;5.13;;;30.70;14.00;;;;;;5083756;28;20077;-58
2021/05/26 05:06:36;;;;;;;18.48;5.18;;;30.70;14.00;;;;;;5087142;28;20155;-57
2021/05/26 05:09:05;;;;;;;13.65;4.25;;;30.70;14.00;;;;;;5082320;28;20210;-58
2021/05/26 05:11:32;;;;;;;14.38;4.38;;;30.70;13.90;;;;;;5088704;28;20065;-54
2021/05/26 05:13:59;;;;;;;13.68;4.70;;;30.60;14.50;;;;;;5085256;28;20221;-58
2021/05/26 05:16:27;;;;;;;17.85;5.18;;;30.60;14.70;;;;;;5085958;28;20100;-59
2021/05/26 05:18:54;;;;;;;12.77;4.55;;;30.60;14.90;;;;;;5067391;28;20080;-57
2021/05/26 05:21:21;;;;;;;29.95;6.78;;;30.50;15.00;;;;;;5085030;28;20077;-54
2021/05/26 05:23:48;;;;;;;18.02;5.60;;;30.50;14.80;;;;;;5084232;28;20164;-59
2021/05/26 05:26:14;;;;;;;23.52;6.25;;;30.40;14.80;;;;;;5087600;28;20418;-59
2021/05/26 05:28:40;;;;;;;20.90;6.47;;;30.50;15.00;;;;;;5083915;28;20192;-56
2021/05/26 05:31:07;;;;;;;28.92;6.55;;;30.40;14.70;;;;;;5082104;28;20156;-58
2021/05/26 05:33:33;;;;;;;29.55;6.88;;;30.40;14.70;;;;;;5086494;28;20450;-56
2021/05/26 05:36:00;;;;;;;19.08;6.10;;;30.40;14.60;;;;;;5085282;28;20095;-58
2021/05/26 05:38:27;;;;;;;20.55;6.40;;;30.40;14.80;;;;;;5088416;28;20081;-59
2021/05/26 05:40:54;;;;;;;21.02;6.40;;;30.30;15.20;;;;;;5085899;28;20406;-55
2021/05/26 05:43:21;;;;;;;21.42;6.00;;;30.40;15.70;;;;;;5084748;28;20072;-58
2021/05/26 05:45:47;;;;;;;20.38;5.78;;;30.30;16.10;;;;;;5079503;28;20182;-58
2021/05/26 05:48:14;;;;;;;16.30;4.53;;;30.30;15.90;;;;;;5082153;28;20077;-57
2021/05/26 05:50:40;;;;;;;19.05;4.80;;;30.30;16.00;;;;;;5086792;28;20540;-58
2021/05/26 05:53:07;;;;;;;19.70;5.55;;;30.20;16.00;;;;;;5086473;28;20179;-55
2021/05/26 05:55:33;;;;;;;17.85;4.72;;;30.20;16.60;;;;;;5082515;28;20483;-58
2021/05/26 05:58:03;;;;;;;17.05;4.75;;;30.20;17.00;;;;;;5088223;28;20530;-56
2021/05/26 06:00:34;;;;;;;22.33;4.40;;;30.20;17.30;;;;;;5090048;28;20069;-59
2021/05/26 06:03:01;;;;;;;19.42;3.95;;;30.10;17.30;;;;;;5063480;28;20073;-60
2021/05/26 06:05:27;;;;;;;14.40;4.32;;;30.10;17.80;;;;;;5085080;28;20092;-59
2021/05/26 06:07:54;;;;;;;18.42;4.07;;;30.10;18.00;;;;;;5085119;28;20214;-59
2021/05/26 06:10:20;;;;;;;36.97;4.70;;;30.10;18.10;;;;;;5087610;28;20072;-59
2021/05/26 06:12:49;;;;;;;15.40;3.72;;;30.00;18.10;;;;;;5091303;28;20101;-61
2021/05/26 06:15:16;;;;;;;21.50;3.95;;;30.00;18.10;;;;;;5081421;28;20093;-62
2021/05/26 06:17:42;;;;;;;8.95;3.67;;;30.00;18.50;;;;;;5079942;28;20129;-59
2021/05/26 06:20:10;;;;;;;12.85;3.42;;;30.00;18.70;;;;;;5086228;28;20065;-61
2021/05/26 06:22:36;;;;;;;11.77;3.70;;;29.90;18.70;;;;;;5082275;28;20414;-61
2021/05/26 06:25:03;;;;;;;11.15;3.03;;;29.90;18.40;;;;;;5086651;28;20088;-61
2021/05/26 06:27:29;;;;;;;15.80;2.97;;;30.40;18.70;;;;;;5086023;28;20095;-60
2021/05/26 06:29:56;;;;;;;11.23;3.30;;;29.90;17.80;;;;;;5065956;28;20081;-58
2021/05/26 06:32:22;;;;;;;12.30;2.90;;;29.90;17.70;;;;;;5088110;28;20550;-59
2021/05/26 06:34:50;;;;;;;6.32;2.97;;;29.80;18.00;;;;;;5085057;28;20488;-60
2021/05/26 06:37:17;;;;;;;7.70;2.80;;;29.80;17.80;;;;;;5081113;28;20080;-61
2021/05/26 06:39:43;;;;;;;7.82;3.05;;;29.80;18.10;;;;;;5085716;28;20129;-62
2021/05/26 06:42:10;;;;;;;12.23;3.10;;;29.80;17.10;;;;;;5085810;28;20413;-61
2021/05/26 06:44:36;;;;;;;8.50;2.53;;;29.80;16.80;;;;;;5083646;28;20510;-59
2021/05/26 06:47:03;;;;;;;7.53;2.47;;;29.80;16.90;;;;;;5085806;28;20114;-57
2021/05/26 06:49:31;;;;;;;13.52;2.63;;;29.80;16.80;;;;;;5086569;28;20112;-55
2021/05/26 06:51:57;;;;;;;9.07;2.88;;;29.80;16.90;;;;;;5088694;28;20159;-58
2021/05/26 06:54:24;;;;;;;12.20;2.95;;;29.80;16.90;;;;;;5082543;28;20588;-57
2021/05/26 06:56:50;;;;;;;16.65;2.83;;;29.80;17.00;;;;;;5079781;28;20155;-59
2021/05/26 06:59:17;;;;;;;15.63;2.75;;;29.80;16.80;;;;;;5085313;28;20111;-58
2021/05/26 07:01:43;;;;;;;14.95;2.42;;;29.80;16.80;;;;;;5088856;28;20069;-58
2021/05/26 07:04:11;;;;;;;9.15;2.50;;;29.70;16.70;;;;;;5082226;28;20070;-60
2021/05/26 07:06:37;;;;;;;14.32;2.67;;;29.70;16.70;;;;;;5080881;28;20073;-59
2021/05/26 07:09:04;;;;;;;10.15;2.58;;;29.70;16.70;;;;;;5084337;28;20084;-60
2021/05/26 07:11:31;;;;;;;9.65;2.63;;;29.60;16.70;;;;;;5092370;28;20076;-59
2021/05/26 07:13:57;;;;;;;13.40;2.63;;;29.60;16.80;;;;;;5082710;28;20093;-56
2021/05/26 07:16:24;;;;;;;8.15;2.33;;;29.60;16.60;;;;;;5080680;28;20122;-57
2021/05/26 07:18:51;;;;;;;10.88;2.40;;;29.60;16.20;;;;;;5084195;28;20084;-56
2021/05/26 07:21:18;;;;;;;8.13;2.20;;;29.60;16.50;;;;;;5086710;28;20073;-57
2021/05/26 07:23:45;;;;;;;8.07;2.35;;;29.60;16.30;;;;;;5082589;28;20163;-58
2021/05/26 07:26:11;;;;;;;12.35;2.25;;;29.60;16.30;;;;;;5065195;28;20077;-58
2021/05/26 07:28:40;;;;;;;11.30;2.58;;;29.50;16.30;;;;;;5083038;28;20159;-57
2021/05/26 07:31:06;;;;;;;14.30;2.50;;;29.50;16.80;;;;;;5088774;28;20080;-57
2021/05/26 07:33:33;;;;;;;10.48;2.63;;;29.50;16.70;;;;;;5089144;28;20161;-55
2021/05/26 07:36:00;;;;;;;9.18;2.65;;;29.50;16.60;;;;;;5082493;28;20096;-59
2021/05/26 07:38:26;;;;;;;10.02;3.17;;;29.40;16.70;;;;;;5086432;28;20092;-52
2021/05/26 07:40:53;;;;;;;11.63;2.85;;;29.40;17.10;;;;;;5092895;28;20142;-56
2021/05/26 07:43:20;;;;;;;7.30;2.53;;;29.30;17.50;;;;;;5086930;28;20072;-56
2021/05/26 07:45:49;;;;;;;10.98;3.20;;;29.20;17.90;;;;;;5089920;28;20072;-55
2021/05/26 07:48:16;;;;;;;12.82;2.92;;;29.20;18.50;;;;;;5070104;28;20120;-58
2021/05/26 07:50:44;;;;;;;9.07;2.75;;;29.10;19.40;;;;;;5088273;28;20603;-56
2021/05/26 07:53:10;;;;;;;9.05;2.80;;;29.00;19.70;;;;;;5083173;28;20112;-59
2021/05/26 07:55:37;;;;;;;13.85;2.97;;;29.00;19.90;;;;;;5088614;28;20075;-58
2021/05/26 07:58:03;;;;;;;10.98;2.78;;;28.90;20.40;;;;;;5084869;28;20076;-59
2021/05/26 08:00:30;;;;;;;10.50;2.20;;;28.80;20.70;;;;;;5088507;28;20076;-56
2021/05/26 08:02:56;;;;;;;13.07;2.88;;;28.80;21.20;;;;;;5086229;28;20137;-57
2021/05/26 08:05:24;;;;;;;8.18;2.88;;;28.80;21.30;;;;;;5090717;28;20077;-58
2021/05/26 08:07:51;;;;;;;9.20;2.65;;;28.70;21.10;;;;;;5089323;28;20072;-59
2021/05/26 08:10:18;;;;;;;9.55;2.55;;;28.60;21.30;;;;;;5088225;28;20072;-53
2021/05/26 08:12:44;;;;;;;17.75;3.08;;;28.60;21.40;;;;;;5096635;28;20089;-58
2021/05/26 08:15:13;;;;;;;11.60;2.28;;;28.50;21.50;;;;;;5071912;28;20079;-59
2021/05/26 08:17:40;;;;;;;10.00;2.40;;;28.50;21.40;;;;;;5088144;28;20133;-55
2021/05/26 08:20:08;;;;;;;9.75;2.45;;;28.40;21.90;;;;;;5091637;28;20076;-58
2021/05/26 08:22:34;;;;;;;9.50;2.25;;;28.30;21.70;;;;;;5087772;28;20087;-57
2021/05/26 08:25:01;;;;;;;10.85;2.58;;;28.30;21.60;;;;;;5086663;28;20102;-56
2021/05/26 08:27:28;;;;;;;9.68;2.40;;;28.20;21.40;;;;;;5087493;28;20076;-56
2021/05/26 08:29:55;;;;;;;9.25;2.65;;;28.20;21.70;;;;;;5087268;28;20103;-58
2021/05/26 08:32:22;;;;;;;10.35;2.20;;;28.20;21.50;;;;;;5088879;28;20064;-59
2021/05/26 08:34:49;;;;;;;12.35;2.90;;;28.20;21.70;;;;;;5086803;28;20134;-59
2021/05/26 08:37:17;;;;;;;11.20;3.10;;;28.10;21.40;;;;;;5084457;28;20085;-58
2021/05/26 08:39:43;;;;;;;13.90;2.70;;;28.00;21.80;;;;;;5088022;28;21284;-59
2021/05/26 08:42:10;;;;;;;11.90;2.50;;;28.00;22.30;;;;;;5088090;28;20573;-57
2021/05/26 08:44:37;;;;;;;13.85;2.78;;;27.90;22.00;;;;;;5092845;28;20069;-55
2021/05/26 08:47:04;;;;;;;7.03;2.33;;;27.90;21.90;;;;;;5090744;28;20084;-56
2021/05/26 08:49:32;;;;;;;12.30;2.42;;;27.80;21.90;;;;;;5093438;28;20167;-57
2021/05/26 08:52:02;;;;;;;18.63;3.03;;;27.70;21.80;;;;;;5087677;28;20617;-59
2021/05/26 08:54:29;;;;;;;14.23;3.00;;;27.70;22.00;;;;;;5068177;28;20473;-54
2021/05/26 08:56:55;;;;;;;15.45;2.90;;;27.60;21.60;;;;;;5083837;28;20080;-55
2021/05/26 08:59:23;;;;;;;21.30;3.25;;;27.60;21.70;;;;;;5085443;28;20134;-57
2021/05/26 09:01:51;;;;;;;15.70;3.00;;;27.60;22.50;;;;;;5086181;28;20076;-58
2021/05/26 09:04:32;;;;;;;9.73;3.03;;;27.50;22.60;;;;;;5082768;28;20076;-55
2021/05/26 09:07:18;;;;;;;15.32;3.38;;;27.50;22.40;;;;;;5084386;28;20072;-58
2021/05/26 09:10:03;;;;;;;17.75;3.33;;;27.40;22.60;;;;;;5080223;28;20515;-56
2021/05/26 09:12:40;;;;;;;18.52;2.75;;;27.30;23.40;;;;;;5085674;28;20081;-56
2021/05/26 09:15:14;;;;;;;17.08;2.95;;;27.30;24.20;;;;;;5088197;28;20069;-58
2021/05/26 09:17:42;;;;;;;10.68;3.17;;;27.20;24.70;;;;;;5089511;28;20126;-58
2021/05/26 09:20:22;;;;;;;16.65;3.80;;;27.20;25.00;;;;;;5087927;28;20076;-58
2021/05/26 09:23:16;;;;;;;13.30;3.35;;;27.10;25.70;;;;;;5084654;28;20091;-56
2021/05/26 09:25:46;;;;;;;14.20;3.20;;;27.10;26.40;;;;;;5083797;28;20100;-56
2021/05/26 09:28:16;;;;;;;19.13;4.20;;;26.90;26.70;;;;;;5086812;28;20068;-57
2021/05/26 09:30:44;;;;;;;25.23;4.70;;;26.80;27.00;;;;;;5088070;28;20510;-58
2021/05/26 09:33:29;;;;;;;21.35;5.43;;;26.90;27.00;;;;;;5088076;28;20116;-57
2021/05/26 09:36:14;;;;;;;21.90;5.65;;;26.80;27.10;;;;;;5085348;28;20077;-57
2021/05/26 09:38:44;;;;;;;18.00;5.78;;;26.90;27.00;;;;;;5090327;28;20091;-57
2021/05/26 09:41:22;;;;;;;17.70;5.45;;;26.90;26.90;;;;;;5088554;28;20077;-58
2021/05/26 09:43:53;;;;;;;19.17;5.40;;;26.90;26.90;;;;;;5087267;28;20079;-59
2021/05/26 09:46:33;;;;;;;25.27;5.65;;;26.80;27.00;;;;;;5082941;28;20483;-59
2021/05/26 09:49:03;;;;;;;21.63;5.50;;;26.70;27.10;;;;;;5092240;28;20521;-58
2021/05/26 09:51:31;;;;;;;21.77;5.70;;;26.80;27.30;;;;;;5092225;28;20076;-57
2021/05/26 09:54:24;;;;;;;17.63;5.55;;;26.70;27.30;;;;;;5087159;28;20124;-57
2021/05/26 09:57:04;;;;;;;17.67;5.45;;;26.70;27.20;;;;;;5083167;28;20065;-56
2021/05/26 09:59:32;;;;;;;15.98;5.25;;;26.70;27.40;;;;;;5088035;28;20079;-59
2021/05/26 10:02:01;;;;;;;25.08;5.47;;;26.70;27.80;;;;;;5069241;28;20080;-56
2021/05/26 10:04:27;;;;;;;22.88;5.78;;;26.70;27.70;;;;;;5086544;28;20530;-54
2021/05/26 10:06:54;;;;;;;20.45;5.05;;;26.70;27.90;;;;;;5085713;28;20081;-58
2021/05/26 10:09:23;;;;;;;14.40;5.18;;;26.60;27.60;;;;;;5082117;28;20073;-57
2021/05/26 10:11:57;;;;;;;19.58;5.28;;;26.60;27.60;;;;;;5083689;28;20175;-58
2021/05/26 10:14:26;;;;;;;19.60;5.72;;;26.50;27.80;;;;;;5084957;28;20171;-58
2021/05/26 10:16:55;;;;;;;17.02;5.15;;;26.50;27.90;;;;;;5083580;28;20065;-58
2021/05/26 10:19:25;;;;;;;19.65;5.25;;;26.40;28.00;;;;;;5089763;28;20597;-59
2021/05/26 10:21:52;;;;;;;23.27;5.45;;;26.40;28.40;;;;;;5084541;28;20080;-55
2021/05/26 10:24:21;;;;;;;12.40;5.53;;;26.40;28.40;;;;;;5087334;28;20083;-57
2021/05/26 10:27:00;;;;;;;19.05;5.70;;;26.30;28.30;;;;;;5083845;28;20081;-56
2021/05/26 10:29:30;;;;;;;19.05;5.50;;;26.30;28.40;;;;;;5086454;28;20069;-58
2021/05/26 10:32:14;;;;;;;20.13;5.18;;;26.30;29.10;;;;;;5086617;28;20073;-56
2021/05/26 10:34:47;;;;;;;15.80;4.95;;;26.30;28.90;;;;;;5087244;28;20092;-56
2021/05/26 10:37:24;;;;;;;18.58;5.55;;;26.20;28.40;;;;;;5083264;28;20069;-55
2021/05/26 10:39:50;;;;;;;21.35;5.22;;;26.20;28.60;;;;;;5086224;28;20072;-58
2021/05/26 10:42:34;;;;;;;12.43;4.90;;;26.20;28.60;;;;;;5082813;28;20092;-56
2021/05/26 10:45:04;;;;;;;17.83;5.05;;;26.20;28.80;;;;;;5085871;28;20215;-56
2021/05/26 10:47:37;;;;;;;20.40;4.40;;;26.10;28.70;;;;;;5086037;28;20073;-58
2021/05/26 10:50:23;;;;;;;12.40;4.40;;;26.00;28.60;;;;;;5090207;28;20091;-56
2021/05/26 10:52:56;;;;;;;15.45;4.70;;;26.00;28.60;;;;;;5081973;28;20089;-59
2021/05/26 10:55:39;;;;;;;16.98;5.10;;;26.00;28.70;;;;;;5090569;28;20266;-55
2021/05/26 10:58:15;;;;;;;22.73;4.95;;;25.90;28.80;;;;;;5088237;28;20076;-58
2021/05/26 11:00:44;;;;;;;13.50;4.82;;;25.90;29.00;;;;;;5085305;28;20117;-58
2021/05/26 11:03:40;;;;;;;17.48;5.43;;;25.80;29.00;;;;;;5081526;28;20430;-56
2021/05/26 11:06:18;;;;;;;22.15;5.72;;;25.80;29.00;;;;;;5082649;28;20153;-58
2021/05/26 11:08:47;;;;;;;18.30;4.63;;;25.80;28.90;;;;;;5086346;28;20072;-57
2021/05/26 11:11:27;;;;;;;18.80;5.25;;;25.90;28.90;;;;;;5083855;28;20080;-55
2021/05/26 11:14:02;;;;;;;22.70;5.47;;;25.80;28.90;;;;;;5080939;28;20107;-57
2021/05/26 11:16:41;;;;;;;19.85;6.03;;;25.70;29.40;;;;;;5084119;28;20429;-56
2021/05/26 11:19:13;;;;;;;25.20;6.75;;;25.60;29.80;;;;;;5090349;28;20597;-59
2021/05/26 11:21:41;;;;;;;19.20;5.97;;;25.60;30.10;;;;;;5091382;28;20069;-58
2021/05/26 11:24:09;;;;;;;30.77;6.75;;;25.60;30.00;;;;;;5085616;28;20073;-58
2021/05/26 11:26:37;;;;;;;27.42;6.55;;;25.60;30.40;;;;;;5095248;28;20079;-56
2021/05/26 11:29:04;;;;;;;23.80;6.90;;;25.60;30.50;;;;;;5088061;28;20099;-59
2021/05/26 11:31:32;;;;;;;26.17;7.40;;;25.50;30.40;;;;;;5085338;28;20116;-58
2021/05/26 11:33:59;;;;;;;17.30;6.22;;;25.40;30.70;;;;;;5090603;28;20129;-58
2021/05/26 11:36:45;;;;;;;20.63;6.38;;;25.40;30.90;;;;;;5087380;28;20076;-59
2021/05/26 11:39:20;;;;;;;26.25;6.93;;;25.30;31.10;;;;;;5085151;28;20156;-58
2021/05/26 11:41:46;;;;;;;17.83;6.57;;;25.30;31.20;;;;;;5086405;28;20089;-58
2021/05/26 11:44:13;;;;;;;25.88;6.82;;;25.30;31.70;;;;;;5081993;28;20080;-56
2021/05/26 11:46:44;;;;;;;32.78;6.57;;;25.20;31.20;;;;;;5086116;28;20148;-58
2021/05/26 11:49:14;;;;;;;23.23;7.30;;;25.20;31.20;;;;;;5089848;28;20073;-58
2021/05/26 11:51:41;;;;;;;30.02;7.63;;;25.20;31.30;;;;;;5095578;28;20072;-57
2021/05/26 11:54:08;;;;;;;19.67;7.97;;;25.20;31.40;;;;;;5091169;28;20528;-58
2021/05/26 11:56:34;;;;;;;21.33;6.55;;;25.20;31.20;;;;;;5085307;28;20144;-54
2021/05/26 11:59:01;;;;;;;16.75;6.38;;;25.10;31.20;;;;;;5090344;28;20072;-54
2021/05/26 12:01:32;;;;;;;25.05;7.97;;;25.10;31.40;;;;;;5091237;28;20571;-58
2021/05/26 12:03:59;;;;;;;23.80;7.25;;;25.10;31.40;;;;;;5090312;28;20107;-59
2021/05/26 12:06:26;;;;;;;28.05;7.07;;;25.10;31.40;;;;;;5085828;28;20118;-59
2021/05/26 12:08:53;;;;;;;25.00;6.93;;;25.20;32.00;;;;;;5087678;28;20631;-56
2021/05/26 12:11:24;;;;;;;32.85;6.85;;;25.20;31.80;;;;;;5086977;28;20076;-58
2021/05/26 12:13:51;;;;;;;29.83;7.35;;;25.20;32.10;;;;;;5089033;28;20180;-57
2021/05/26 12:16:21;;;;;;;26.33;7.50;;;25.20;32.60;;;;;;5089855;28;20077;-58
2021/05/26 12:18:55;;;;;;;28.52;7.68;;;25.10;33.30;;;;;;5089012;28;20092;-57
2021/05/26 12:21:23;;;;;;;24.35;7.35;;;25.10;33.70;;;;;;5087057;28;20080;-57
2021/05/26 12:23:50;;;;;;;25.35;7.53;;;25.10;34.00;;;;;;5087399;28;20090;-57
2021/05/26 12:26:21;;;;;;;25.17;6.97;;;25.10;34.10;;;;;;5089636;28;20077;-56
2021/05/26 12:28:48;;;;;;;32.45;8.02;;;25.10;34.70;;;;;;5089242;28;20112;-55
2021/05/26 12:31:15;;;;;;;27.67;7.75;;;25.00;35.40;;;;;;5086659;28;20074;-58
2021/05/26 12:33:51;;;;;;;24.38;7.60;;;25.00;36.30;;;;;;5089063;28;20195;-57
2021/05/26 12:36:18;;;;;;;27.42;7.93;;;24.90;36.70;;;;;;5086199;28;20476;-57
2021/05/26 12:38:46;;;;;;;27.73;8.40;;;25.00;37.50;;;;;;5068773;28;20077;-55
2021/05/26 12:41:22;;;;;;;32.40;8.68;;;25.00;37.50;;;;;;5084766;28;20302;-56
2021/05/26 12:43:50;;;;;;;34.33;8.57;;;25.00;37.50;;;;;;5073071;28;20085;-57
2021/05/26 12:46:36;;;;;;;28.77;7.50;;;25.00;38.00;;;;;;5084779;28;20081;-56